createdAt,value
2022-12-29T00:00:00.966Z,8.2
2022-12-29T00:01:01.173Z,8.19
2022-12-29T00:02:01.245Z,8.21
2022-12-29T00:03:00.624Z,8.2
2022-12-29T00:04:00.633Z,8.21
2022-12-29T00:05:00.715Z,8.21
2022-12-29T00:06:00.844Z,8.18
2022-12-29T00:07:00.988Z,8.21
2022-12-29T00:08:01.130Z,8.29
2022-12-29T00:09:00.288Z,8.33
2022-12-29T00:10:00.460Z,8.3
2022-12-29T00:11:00.585Z,8.26
2022-12-29T00:12:00.729Z,8.22
2022-12-29T00:13:00.897Z,8.23
2022-12-29T00:14:01.050Z,8.24
2022-12-29T00:15:01.188Z,8.23
2022-12-29T00:16:00.369Z,8.26
2022-12-29T00:17:00.453Z,8.24
2022-12-29T00:18:00.617Z,8.27
2022-12-29T00:19:00.767Z,8.26
2022-12-29T00:20:00.939Z,8.23
2022-12-29T00:21:01.085Z,8.18
2022-12-29T00:22:01.211Z,8.18
2022-12-29T00:23:00.359Z,8.18
2022-12-29T00:24:00.492Z,8.19
2022-12-29T00:25:00.655Z,8.27
2022-12-29T00:26:00.796Z,8.27
2022-12-29T00:27:00.932Z,8.28
2022-12-29T00:28:06.636Z,8.27
2022-12-29T00:29:01.236Z,8.29
2022-12-29T00:30:00.396Z,8.34
2022-12-29T00:31:00.613Z,8.33
2022-12-29T00:32:00.686Z,8.29
2022-12-29T00:33:00.834Z,8.31
2022-12-29T00:34:00.977Z,8.36
2022-12-29T00:35:01.131Z,8.41
2022-12-29T00:36:00.299Z,8.39
2022-12-29T00:37:00.433Z,8.41
2022-12-29T00:38:00.583Z,8.44
2022-12-29T00:39:00.737Z,8.47
2022-12-29T00:40:00.875Z,8.46
2022-12-29T00:41:01.056Z,8.47
2022-12-29T00:42:01.194Z,8.5
2022-12-29T00:43:00.334Z,8.49
2022-12-29T00:44:00.490Z,8.5
2022-12-29T00:45:00.633Z,8.52
2022-12-29T00:46:00.797Z,8.56
2022-12-29T00:47:01.039Z,8.6
2022-12-29T00:48:01.082Z,8.57
2022-12-29T00:49:01.243Z,8.53
2022-12-29T00:50:00.385Z,8.55
2022-12-29T00:51:00.533Z,8.57
2022-12-29T00:52:00.684Z,8.6
2022-12-29T00:53:00.803Z,8.62
2022-12-29T00:54:00.965Z,8.61
2022-12-29T00:55:01.109Z,8.59
2022-12-29T00:56:01.253Z,8.62
2022-12-29T00:57:00.401Z,8.64
2022-12-29T00:58:00.553Z,8.62
2022-12-29T00:59:00.693Z,8.62
2022-12-29T01:00:00.875Z,8.65
2022-12-29T01:01:01.027Z,8.64
2022-12-29T01:02:01.260Z,8.65
2022-12-29T01:03:00.513Z,8.67
2022-12-29T01:04:04.175Z,8.7
2022-12-29T01:05:00.578Z,8.66
2022-12-29T01:06:00.705Z,8.66
2022-12-29T01:07:00.847Z,8.64
2022-12-29T01:08:01.007Z,8.67
2022-12-29T01:09:01.166Z,8.65
2022-12-29T01:10:00.304Z,8.66
2022-12-29T01:11:00.448Z,8.71
2022-12-29T01:12:00.606Z,8.71
2022-12-29T01:13:00.733Z,8.76
2022-12-29T01:14:00.916Z,8.78
2022-12-29T01:15:01.086Z,8.73
2022-12-29T01:16:01.207Z,8.72
2022-12-29T01:17:00.320Z,8.73
2022-12-29T01:18:00.459Z,8.79
2022-12-29T01:19:00.596Z,8.81
2022-12-29T01:20:00.771Z,8.79
2022-12-29T01:21:00.914Z,8.81
2022-12-29T01:22:01.127Z,8.81
2022-12-29T01:23:01.202Z,8.85
2022-12-29T01:24:00.351Z,8.83
2022-12-29T01:25:00.492Z,8.81
2022-12-29T01:26:00.627Z,8.77
2022-12-29T01:27:00.825Z,8.8
2022-12-29T01:28:00.939Z,8.8
2022-12-29T01:29:01.097Z,8.82
2022-12-29T01:30:01.228Z,8.83
2022-12-29T01:31:00.386Z,8.8
2022-12-29T01:32:00.616Z,8.8
2022-12-29T01:33:00.680Z,8.81
2022-12-29T01:34:00.827Z,8.86
2022-12-29T01:35:00.988Z,8.83
2022-12-29T01:36:01.137Z,8.79
2022-12-29T01:37:00.292Z,8.76
2022-12-29T01:38:00.440Z,8.76
2022-12-29T01:39:00.612Z,8.74
2022-12-29T01:40:00.730Z,8.74
2022-12-29T01:41:00.890Z,8.76
2022-12-29T01:42:01.054Z,8.8
2022-12-29T01:43:01.191Z,8.78
2022-12-29T01:44:00.401Z,8.78
2022-12-29T01:45:00.501Z,8.8
2022-12-29T01:46:00.675Z,8.77
2022-12-29T01:47:00.775Z,8.74
2022-12-29T01:48:00.905Z,8.73
2022-12-29T01:49:01.061Z,8.75
2022-12-29T01:50:01.238Z,8.75
2022-12-29T01:51:00.351Z,8.75
2022-12-29T01:52:00.506Z,8.77
2022-12-29T01:53:00.641Z,8.74
2022-12-29T01:54:00.803Z,8.76
2022-12-29T01:55:00.972Z,8.75
2022-12-29T01:56:01.100Z,8.8
2022-12-29T01:57:01.246Z,8.81
2022-12-29T01:58:00.380Z,8.86
2022-12-29T01:59:00.537Z,8.93
2022-12-29T02:00:00.748Z,8.93
2022-12-29T02:01:00.950Z,8.93
2022-12-29T02:02:01.069Z,8.94
2022-12-29T02:03:01.199Z,8.94
2022-12-29T02:04:00.290Z,8.94
2022-12-29T02:05:04.439Z,8.9
2022-12-29T02:06:00.601Z,8.87
2022-12-29T02:07:00.755Z,8.93
2022-12-29T02:08:00.880Z,8.88
2022-12-29T02:09:01.019Z,8.82
2022-12-29T02:10:01.215Z,8.77
2022-12-29T02:11:00.339Z,8.77
2022-12-29T02:12:00.466Z,8.76
2022-12-29T02:13:00.622Z,8.77
2022-12-29T02:14:03.622Z,8.77
2022-12-29T02:15:00.908Z,8.76
2022-12-29T02:16:01.136Z,8.76
2022-12-29T02:17:01.224Z,8.81
2022-12-29T02:18:00.354Z,8.79
2022-12-29T02:19:00.491Z,8.79
2022-12-29T02:20:00.646Z,8.77
2022-12-29T02:21:00.788Z,8.76
2022-12-29T02:22:00.952Z,8.77
2022-12-29T02:23:01.083Z,8.82
2022-12-29T02:24:01.237Z,8.9
2022-12-29T02:25:00.375Z,8.94
2022-12-29T02:26:00.514Z,8.95
2022-12-29T02:27:00.683Z,9.02
2022-12-29T02:28:00.802Z,8.97
2022-12-29T02:29:00.962Z,9
2022-12-29T02:30:01.107Z,9.05
2022-12-29T02:31:01.250Z,9.1
2022-12-29T02:32:00.538Z,9.07
2022-12-29T02:33:00.571Z,9.08
2022-12-29T02:34:00.713Z,9.05
2022-12-29T02:35:00.861Z,9.03
2022-12-29T02:36:00.998Z,9.04
2022-12-29T02:37:01.145Z,9.04
2022-12-29T02:38:00.317Z,9.07
2022-12-29T02:39:00.450Z,9.04
2022-12-29T02:40:00.623Z,9.06
2022-12-29T02:41:00.738Z,9.03
2022-12-29T02:42:00.899Z,9.05
2022-12-29T02:43:01.068Z,9.03
2022-12-29T02:44:01.200Z,9.06
2022-12-29T02:45:00.361Z,9.1
2022-12-29T02:46:00.604Z,9.08
2022-12-29T02:47:00.651Z,9.08
2022-12-29T02:48:00.799Z,9.09
2022-12-29T02:49:00.972Z,9.08
2022-12-29T02:50:01.103Z,9.07
2022-12-29T02:51:01.272Z,9.15
2022-12-29T02:52:00.409Z,9.12
2022-12-29T02:53:00.537Z,9.12
2022-12-29T02:54:00.740Z,9.08
2022-12-29T02:55:00.881Z,9.09
2022-12-29T02:56:00.993Z,9.11
2022-12-29T02:57:01.158Z,9.09
2022-12-29T02:58:00.293Z,9.1
2022-12-29T02:59:00.454Z,9.08
2022-12-29T03:00:00.584Z,9.07
2022-12-29T03:01:00.805Z,9.1
2022-12-29T03:02:01.058Z,9.11
2022-12-29T03:03:01.186Z,9.06
2022-12-29T03:04:01.197Z,9.06
2022-12-29T03:05:00.343Z,9.11
2022-12-29T03:06:00.494Z,9.12
2022-12-29T03:07:00.627Z,9.14
2022-12-29T03:08:00.776Z,9.12
2022-12-29T03:09:00.959Z,9.1
2022-12-29T03:10:01.073Z,9.1
2022-12-29T03:11:01.241Z,9.14
2022-12-29T03:12:00.379Z,9.15
2022-12-29T03:13:00.541Z,9.2
2022-12-29T03:14:00.682Z,9.2
2022-12-29T03:15:00.886Z,9.24
2022-12-29T03:16:01.040Z,9.33
2022-12-29T03:17:01.262Z,9.34
2022-12-29T03:18:00.303Z,9.31
2022-12-29T03:19:00.433Z,9.31
2022-12-29T03:20:00.586Z,9.34
2022-12-29T03:21:00.735Z,9.32
2022-12-29T03:22:00.882Z,9.3
2022-12-29T03:23:01.039Z,9.29
2022-12-29T03:24:01.170Z,9.29
2022-12-29T03:25:00.316Z,9.33
2022-12-29T03:26:00.493Z,9.35
2022-12-29T03:27:00.613Z,9.31
2022-12-29T03:28:00.757Z,9.3
2022-12-29T03:29:00.903Z,9.32
2022-12-29T03:30:01.064Z,9.35
2022-12-29T03:31:01.330Z,9.4
2022-12-29T03:32:00.354Z,9.46
2022-12-29T03:33:00.499Z,9.49
2022-12-29T03:34:00.657Z,9.51
2022-12-29T03:35:00.800Z,9.5
2022-12-29T03:36:00.961Z,9.51
2022-12-29T03:37:01.094Z,9.5
2022-12-29T03:38:01.250Z,9.5
2022-12-29T03:39:00.411Z,9.5
2022-12-29T03:40:00.548Z,9.5
2022-12-29T03:41:00.719Z,9.53
2022-12-29T03:42:00.846Z,9.57
2022-12-29T03:43:00.985Z,9.56
2022-12-29T03:44:01.141Z,9.53
2022-12-29T03:45:00.276Z,9.51
2022-12-29T03:46:00.514Z,9.52
2022-12-29T03:47:00.578Z,9.53
2022-12-29T03:48:00.742Z,9.52
2022-12-29T03:49:00.886Z,9.51
2022-12-29T03:50:01.067Z,9.55
2022-12-29T03:51:01.241Z,9.5
2022-12-29T03:52:00.347Z,9.45
2022-12-29T03:53:00.511Z,9.44
2022-12-29T03:54:00.632Z,9.4
2022-12-29T03:55:00.779Z,9.4
2022-12-29T03:56:00.923Z,9.45
2022-12-29T03:57:01.086Z,9.46
2022-12-29T03:58:01.254Z,9.46
2022-12-29T03:59:00.384Z,9.44
2022-12-29T04:00:00.526Z,9.46
2022-12-29T04:01:00.761Z,9.46
2022-12-29T04:02:01.000Z,9.45
2022-12-29T04:03:01.147Z,9.46
2022-12-29T04:04:01.116Z,9.51
2022-12-29T04:05:00.278Z,9.53
2022-12-29T04:06:00.418Z,9.48
2022-12-29T04:07:00.590Z,9.48
2022-12-29T04:08:00.731Z,9.51
2022-12-29T04:09:00.876Z,9.54
2022-12-29T04:10:01.033Z,9.54
2022-12-29T04:11:01.166Z,9.54
2022-12-29T04:12:00.313Z,9.53
2022-12-29T04:13:00.497Z,9.5
2022-12-29T04:14:00.618Z,9.46
2022-12-29T04:15:00.750Z,9.46
2022-12-29T04:16:00.915Z,9.45
2022-12-29T04:17:01.054Z,9.48
2022-12-29T04:18:01.216Z,9.52
2022-12-29T04:19:00.363Z,9.51
2022-12-29T04:20:00.500Z,9.46
2022-12-29T04:21:00.761Z,9.45
2022-12-29T04:22:00.807Z,9.45
2022-12-29T04:23:00.989Z,9.49
2022-12-29T04:24:01.115Z,9.48
2022-12-29T04:25:01.277Z,9.47
2022-12-29T04:26:00.417Z,9.47
2022-12-29T04:27:00.558Z,9.47
2022-12-29T04:28:00.719Z,9.48
2022-12-29T04:29:00.867Z,9.49
2022-12-29T04:30:01.042Z,9.51
2022-12-29T04:31:01.281Z,9.51
2022-12-29T04:32:00.304Z,9.52
2022-12-29T04:33:00.460Z,9.49
2022-12-29T04:34:00.608Z,9.48
2022-12-29T04:35:00.843Z,9.5
2022-12-29T04:36:00.935Z,9.54
2022-12-29T04:37:01.057Z,9.56
2022-12-29T04:38:01.200Z,9.57
2022-12-29T04:39:00.345Z,9.56
2022-12-29T04:40:00.499Z,9.56
2022-12-29T04:41:00.641Z,9.51
2022-12-29T04:42:00.758Z,9.49
2022-12-29T04:43:00.908Z,9.42
2022-12-29T04:44:01.060Z,9.4
2022-12-29T04:45:01.210Z,9.4
2022-12-29T04:46:00.466Z,9.39
2022-12-29T04:47:00.509Z,9.4
2022-12-29T04:48:00.651Z,9.4
2022-12-29T04:49:00.826Z,9.38
2022-12-29T04:50:00.971Z,9.37
2022-12-29T04:51:01.130Z,9.38
2022-12-29T04:52:01.259Z,9.4
2022-12-29T04:53:00.398Z,9.4
2022-12-29T04:54:00.579Z,9.42
2022-12-29T04:55:00.705Z,9.44
2022-12-29T04:56:00.851Z,9.41
2022-12-29T04:57:00.997Z,9.44
2022-12-29T04:58:01.137Z,9.45
2022-12-29T04:59:00.307Z,9.51
2022-12-29T05:00:00.418Z,9.52
2022-12-29T05:01:00.574Z,9.5
2022-12-29T05:02:00.833Z,9.51
2022-12-29T05:03:01.156Z,9.55
2022-12-29T05:04:01.088Z,9.6
2022-12-29T05:05:01.191Z,9.57
2022-12-29T05:06:00.335Z,9.55
2022-12-29T05:07:00.484Z,9.55
2022-12-29T05:08:00.652Z,9.56
2022-12-29T05:09:00.798Z,9.57
2022-12-29T05:10:00.925Z,9.53
2022-12-29T05:11:01.087Z,9.54
2022-12-29T05:12:01.229Z,9.55
2022-12-29T05:13:00.405Z,9.56
2022-12-29T05:14:00.521Z,9.59
2022-12-29T05:15:00.671Z,9.54
2022-12-29T05:16:00.921Z,9.51
2022-12-29T05:17:00.971Z,9.5
2022-12-29T05:18:01.200Z,9.54
2022-12-29T05:19:00.256Z,9.55
2022-12-29T05:20:00.441Z,9.53
2022-12-29T05:21:00.562Z,9.54
2022-12-29T05:22:00.722Z,9.56
2022-12-29T05:23:00.886Z,9.63
2022-12-29T05:24:01.046Z,9.65
2022-12-29T05:25:01.178Z,9.65
2022-12-29T05:26:00.315Z,9.66
2022-12-29T05:27:00.478Z,9.64
2022-12-29T05:28:00.617Z,9.61
2022-12-29T05:29:00.835Z,9.56
2022-12-29T05:30:00.934Z,9.51
2022-12-29T05:31:01.092Z,9.47
2022-12-29T05:32:01.232Z,9.47
2022-12-29T05:33:00.364Z,9.48
2022-12-29T05:34:00.528Z,9.5
2022-12-29T05:35:00.660Z,9.53
2022-12-29T05:36:00.810Z,9.55
2022-12-29T05:37:00.965Z,9.53
2022-12-29T05:38:01.111Z,9.51
2022-12-29T05:39:01.293Z,9.5
2022-12-29T05:40:00.401Z,9.5
2022-12-29T05:41:00.556Z,9.48
2022-12-29T05:42:00.698Z,9.45
2022-12-29T05:43:00.872Z,9.44
2022-12-29T05:44:01.049Z,9.42
2022-12-29T05:45:01.176Z,9.38
2022-12-29T05:46:00.316Z,9.36
2022-12-29T05:47:00.615Z,9.37
2022-12-29T05:48:00.627Z,9.35
2022-12-29T05:49:00.784Z,9.32
2022-12-29T05:50:00.931Z,9.34
2022-12-29T05:51:01.089Z,9.32
2022-12-29T05:52:01.216Z,9.24
2022-12-29T05:53:00.368Z,9.26
2022-12-29T05:54:00.515Z,9.24
2022-12-29T05:55:00.672Z,9.24
2022-12-29T05:56:00.840Z,9.24
2022-12-29T05:57:00.945Z,9.26
2022-12-29T05:58:01.091Z,9.2
2022-12-29T05:59:01.231Z,9.16
2022-12-29T06:00:00.427Z,9.19
2022-12-29T06:01:00.540Z,9.23
2022-12-29T06:02:00.877Z,9.27
2022-12-29T06:03:00.955Z,9.24
2022-12-29T06:04:01.115Z,9.26
2022-12-29T06:05:01.126Z,9.26
2022-12-29T06:06:01.259Z,9.3
2022-12-29T06:07:00.405Z,9.27
2022-12-29T06:08:00.564Z,9.23
2022-12-29T06:09:00.705Z,9.23
2022-12-29T06:10:00.852Z,9.23
2022-12-29T06:11:01.006Z,9.23
2022-12-29T06:12:01.182Z,9.26
2022-12-29T06:13:00.315Z,9.26
2022-12-29T06:14:00.465Z,9.29
2022-12-29T06:15:00.605Z,9.27
2022-12-29T06:16:00.782Z,9.29
2022-12-29T06:17:00.931Z,9.29
2022-12-29T06:18:01.050Z,9.3
2022-12-29T06:19:01.189Z,9.3
2022-12-29T06:20:00.353Z,9.3
2022-12-29T06:21:00.482Z,9.31
2022-12-29T06:22:00.625Z,9.31
2022-12-29T06:23:00.763Z,9.31
2022-12-29T06:24:00.921Z,9.3
2022-12-29T06:25:04.969Z,9.31
2022-12-29T06:26:01.244Z,9.29
2022-12-29T06:27:00.373Z,9.27
2022-12-29T06:28:00.503Z,9.26
2022-12-29T06:29:00.672Z,9.26
2022-12-29T06:30:00.833Z,9.26
2022-12-29T06:31:00.983Z,9.23
2022-12-29T06:32:01.192Z,9.21
2022-12-29T06:33:01.269Z,9.21
2022-12-29T06:34:06.486Z,9.21
2022-12-29T06:35:00.589Z,9.23
2022-12-29T06:36:00.711Z,9.2
2022-12-29T06:37:00.857Z,9.19
2022-12-29T06:38:00.996Z,9.19
2022-12-29T06:39:01.164Z,9.19
2022-12-29T06:40:00.287Z,9.21
2022-12-29T06:41:00.434Z,9.21
2022-12-29T06:42:00.579Z,9.21
2022-12-29T06:43:00.729Z,9.23
2022-12-29T06:44:00.886Z,9.23
2022-12-29T06:45:01.034Z,9.24
2022-12-29T06:46:01.225Z,9.22
2022-12-29T06:47:00.329Z,9.22
2022-12-29T06:48:00.470Z,9.19
2022-12-29T06:49:00.610Z,9.2
2022-12-29T06:50:00.774Z,9.18
2022-12-29T06:51:00.901Z,9.14
2022-12-29T06:52:01.073Z,9.11
2022-12-29T06:53:01.210Z,9.08
2022-12-29T06:54:00.372Z,9.07
2022-12-29T06:55:00.506Z,9.03
2022-12-29T06:56:00.663Z,9
2022-12-29T06:57:00.817Z,8.95
2022-12-29T06:58:00.966Z,8.94
2022-12-29T06:59:01.123Z,8.95
2022-12-29T07:00:01.240Z,8.95
2022-12-29T07:01:00.461Z,8.95
2022-12-29T07:02:00.780Z,8.95
2022-12-29T07:03:00.914Z,8.94
2022-12-29T07:04:00.846Z,8.94
2022-12-29T07:05:00.999Z,8.95
2022-12-29T07:06:01.115Z,8.95
2022-12-29T07:07:00.266Z,8.97
2022-12-29T07:08:00.416Z,9.04
2022-12-29T07:09:00.645Z,9.06
2022-12-29T07:10:00.732Z,9.07
2022-12-29T07:11:00.863Z,9.07
2022-12-29T07:12:01.004Z,9.08
2022-12-29T07:13:01.133Z,9.09
2022-12-29T07:14:04.485Z,9.1
2022-12-29T07:15:00.459Z,9.1
2022-12-29T07:16:00.601Z,9.11
2022-12-29T07:17:00.788Z,9.08
2022-12-29T07:18:00.904Z,9.04
2022-12-29T07:19:01.060Z,9.06
2022-12-29T07:20:01.195Z,9.06
2022-12-29T07:21:00.338Z,9.08
2022-12-29T07:22:00.499Z,9.05
2022-12-29T07:23:00.653Z,9.06
2022-12-29T07:24:00.818Z,9.04
2022-12-29T07:25:00.960Z,9.03
2022-12-29T07:26:01.089Z,8.95
2022-12-29T07:27:01.231Z,8.95
2022-12-29T07:28:00.397Z,8.93
2022-12-29T07:29:00.563Z,8.83
2022-12-29T07:30:00.712Z,8.81
2022-12-29T07:31:00.833Z,8.86
2022-12-29T07:32:01.064Z,8.87
2022-12-29T07:33:01.120Z,8.9
2022-12-29T07:34:00.276Z,8.89
2022-12-29T07:35:00.420Z,8.88
2022-12-29T07:36:00.572Z,8.82
2022-12-29T07:37:00.737Z,8.81
2022-12-29T07:38:00.905Z,8.87
2022-12-29T07:39:01.017Z,8.91
2022-12-29T07:40:01.174Z,8.93
2022-12-29T07:41:00.334Z,8.94
2022-12-29T07:42:04.767Z,8.94
2022-12-29T07:43:00.660Z,8.94
2022-12-29T07:44:00.767Z,8.9
2022-12-29T07:45:00.913Z,8.94
2022-12-29T07:46:01.171Z,8.94
2022-12-29T07:47:01.288Z,8.95
2022-12-29T07:48:00.392Z,8.95
2022-12-29T07:49:00.496Z,8.94
2022-12-29T07:50:00.643Z,8.94
2022-12-29T07:51:00.803Z,8.94
2022-12-29T07:52:00.962Z,8.94
2022-12-29T07:53:01.128Z,8.91
2022-12-29T07:54:01.258Z,8.94
2022-12-29T07:55:00.399Z,8.94
2022-12-29T07:56:00.590Z,8.95
2022-12-29T07:57:00.724Z,8.96
2022-12-29T07:58:00.896Z,9
2022-12-29T07:59:01.018Z,9.02
2022-12-29T08:00:01.181Z,9.06
2022-12-29T08:01:00.354Z,9.09
2022-12-29T08:02:00.557Z,9.09
2022-12-29T08:03:00.630Z,9.08
2022-12-29T08:04:00.850Z,9.08
2022-12-29T08:05:00.921Z,9.1
2022-12-29T08:06:01.069Z,9.14
2022-12-29T08:07:01.245Z,9.17
2022-12-29T08:08:00.390Z,9.2
2022-12-29T08:09:05.889Z,9.21
2022-12-29T08:10:00.693Z,9.21
2022-12-29T08:11:00.831Z,9.21
2022-12-29T08:12:00.966Z,9.26
2022-12-29T08:13:01.175Z,9.29
2022-12-29T08:14:00.267Z,9.3
2022-12-29T08:15:00.430Z,9.31
2022-12-29T08:16:00.585Z,9.36
2022-12-29T08:17:00.719Z,9.37
2022-12-29T08:18:00.888Z,9.36
2022-12-29T08:19:01.003Z,9.38
2022-12-29T08:20:01.169Z,9.36
2022-12-29T08:21:00.308Z,9.37
2022-12-29T08:22:00.455Z,9.37
2022-12-29T08:23:00.628Z,9.37
2022-12-29T08:24:00.782Z,9.36
2022-12-29T08:25:00.920Z,9.37
2022-12-29T08:26:01.055Z,9.37
2022-12-29T08:27:08.369Z,9.37
2022-12-29T08:28:00.407Z,9.34
2022-12-29T08:29:00.491Z,9.36
2022-12-29T08:30:00.642Z,9.36
2022-12-29T08:31:01.053Z,9.33
2022-12-29T08:32:00.928Z,9.33
2022-12-29T08:33:01.090Z,9.33
2022-12-29T08:34:01.266Z,9.32
2022-12-29T08:35:00.374Z,9.31
2022-12-29T08:36:00.505Z,9.34
2022-12-29T08:37:00.643Z,9.35
2022-12-29T08:38:00.788Z,9.38
2022-12-29T08:39:00.966Z,9.38
2022-12-29T08:40:01.161Z,9.42
2022-12-29T08:41:01.254Z,9.44
2022-12-29T08:42:00.399Z,9.45
2022-12-29T08:43:00.563Z,9.48
2022-12-29T08:44:00.710Z,9.54
2022-12-29T08:45:00.883Z,9.56
2022-12-29T08:46:01.065Z,9.56
2022-12-29T08:47:01.176Z,9.57
2022-12-29T08:48:00.284Z,9.61
2022-12-29T08:49:00.428Z,9.66
2022-12-29T08:50:00.592Z,9.71
2022-12-29T08:51:00.733Z,9.76
2022-12-29T08:52:00.885Z,9.76
2022-12-29T08:53:01.029Z,9.77
2022-12-29T08:54:01.179Z,9.76
2022-12-29T08:55:00.372Z,9.77
2022-12-29T08:56:04.772Z,9.77
2022-12-29T08:57:00.655Z,9.76
2022-12-29T08:58:00.785Z,9.78
2022-12-29T08:59:00.937Z,9.78
2022-12-29T09:00:01.101Z,9.8
2022-12-29T09:01:01.235Z,9.82
2022-12-29T09:02:00.519Z,9.85
2022-12-29T09:03:00.749Z,9.86
2022-12-29T09:04:17.379Z,9.83
2022-12-29T09:05:00.922Z,9.83
2022-12-29T09:06:01.002Z,9.85
2022-12-29T09:07:01.149Z,9.86
2022-12-29T09:08:00.300Z,9.84
2022-12-29T09:09:00.433Z,9.86
2022-12-29T09:10:00.577Z,9.85
2022-12-29T09:11:00.747Z,9.84
2022-12-29T09:12:00.902Z,9.82
2022-12-29T09:13:01.024Z,9.81
2022-12-29T09:14:01.180Z,9.82
2022-12-29T09:15:00.314Z,9.84
2022-12-29T09:16:00.582Z,9.85
2022-12-29T09:17:00.629Z,9.88
2022-12-29T09:18:00.754Z,9.9
2022-12-29T09:19:00.921Z,9.93
2022-12-29T09:20:01.042Z,9.98
2022-12-29T09:21:01.198Z,10.01
2022-12-29T09:22:00.350Z,10.06
2022-12-29T09:23:00.520Z,10.07
2022-12-29T09:24:00.667Z,10.06
2022-12-29T09:25:00.805Z,10.04
2022-12-29T09:26:00.939Z,10.06
2022-12-29T09:27:01.104Z,10.07
2022-12-29T09:28:01.271Z,10.04
2022-12-29T09:29:00.409Z,10
2022-12-29T09:30:00.579Z,10
2022-12-29T09:31:00.761Z,10.01
2022-12-29T09:32:00.853Z,10
2022-12-29T09:33:01.043Z,10.01
2022-12-29T09:34:01.172Z,9.99
2022-12-29T09:35:00.322Z,9.99
2022-12-29T09:36:00.462Z,10
2022-12-29T09:37:00.611Z,10.03
2022-12-29T09:38:00.793Z,10.06
2022-12-29T09:39:00.938Z,10.06
2022-12-29T09:40:01.070Z,10.06
2022-12-29T09:41:01.216Z,10.05
2022-12-29T09:42:00.365Z,10.05
2022-12-29T09:43:00.519Z,10.06
2022-12-29T09:44:00.660Z,10.05
2022-12-29T09:45:00.792Z,10.06
2022-12-29T09:46:00.943Z,10.06
2022-12-29T09:47:01.115Z,10.07
2022-12-29T09:48:05.372Z,10.08
2022-12-29T09:49:00.392Z,10.08
2022-12-29T09:50:00.541Z,10.08
2022-12-29T09:51:00.694Z,10.08
2022-12-29T09:52:00.829Z,10.11
2022-12-29T09:53:00.984Z,10.13
2022-12-29T09:54:01.149Z,10.16
2022-12-29T09:55:05.065Z,10.15
2022-12-29T09:56:00.431Z,10.15
2022-12-29T09:57:00.665Z,10.18
2022-12-29T09:58:00.730Z,10.19
2022-12-29T09:59:00.873Z,10.2
2022-12-29T10:00:01.015Z,10.21
2022-12-29T10:01:01.217Z,10.22
2022-12-29T10:02:00.521Z,10.24
2022-12-29T10:03:00.528Z,10.25
2022-12-29T10:04:00.644Z,10.25
2022-12-29T10:05:00.767Z,10.24
2022-12-29T10:06:00.901Z,10.22
2022-12-29T10:07:28.459Z,10.21
2022-12-29T10:08:01.214Z,10.21
2022-12-29T10:09:00.340Z,10.2
2022-12-29T10:10:00.492Z,10.19
2022-12-29T10:11:00.644Z,10.16
2022-12-29T10:12:00.789Z,10.16
2022-12-29T10:13:00.957Z,10.19
2022-12-29T10:14:01.092Z,10.18
2022-12-29T10:15:01.231Z,10.18
2022-12-29T10:16:00.389Z,10.18
2022-12-29T10:17:00.535Z,10.2
2022-12-29T10:18:00.678Z,10.26
2022-12-29T10:19:00.815Z,10.31
2022-12-29T10:20:00.962Z,10.39
2022-12-29T10:21:01.130Z,10.45
2022-12-29T10:22:00.310Z,10.51
2022-12-29T10:23:00.430Z,10.54
2022-12-29T10:24:00.583Z,10.59
2022-12-29T10:25:00.747Z,10.63
2022-12-29T10:26:00.874Z,10.66
2022-12-29T10:27:01.041Z,10.66
2022-12-29T10:28:01.193Z,10.68
2022-12-29T10:29:00.339Z,10.69
2022-12-29T10:30:00.479Z,10.67
2022-12-29T10:31:06.687Z,10.68
2022-12-29T10:32:00.832Z,10.67
2022-12-29T10:33:00.934Z,10.68
2022-12-29T10:34:01.064Z,10.74
2022-12-29T10:35:01.214Z,10.81
2022-12-29T10:36:00.355Z,10.85
2022-12-29T10:37:00.505Z,10.88
2022-12-29T10:38:00.668Z,10.89
2022-12-29T10:39:00.792Z,10.92
2022-12-29T10:40:00.998Z,10.93
2022-12-29T10:41:01.106Z,10.94
2022-12-29T10:42:01.239Z,10.95
2022-12-29T10:43:00.413Z,10.97
2022-12-29T10:44:00.524Z,10.96
2022-12-29T10:45:00.690Z,10.95
2022-12-29T10:46:00.917Z,10.98
2022-12-29T10:47:00.978Z,11.02
2022-12-29T10:48:01.151Z,11.03
2022-12-29T10:49:00.267Z,11.03
2022-12-29T10:50:00.421Z,11.02
2022-12-29T10:51:02.297Z,11.01
2022-12-29T10:52:00.725Z,11.03
2022-12-29T10:53:00.859Z,11.03
2022-12-29T10:54:01.027Z,11.04
2022-12-29T10:55:01.204Z,11.04
2022-12-29T10:56:00.388Z,11.05
2022-12-29T10:57:00.480Z,11.07
2022-12-29T10:58:00.621Z,11.09
2022-12-29T10:59:00.783Z,11.12
2022-12-29T11:00:00.930Z,11.15
2022-12-29T11:01:01.112Z,11.13
2022-12-29T11:02:01.425Z,11.1
2022-12-29T11:03:00.572Z,11.08
2022-12-29T11:04:00.506Z,11.04
2022-12-29T11:05:00.653Z,11.01
2022-12-29T11:06:00.807Z,11
2022-12-29T11:07:00.949Z,11.07
2022-12-29T11:08:01.123Z,11.11
2022-12-29T11:09:01.260Z,11.12
2022-12-29T11:10:00.401Z,11.14
2022-12-29T11:11:00.563Z,11.13
2022-12-29T11:12:00.712Z,11.09
2022-12-29T11:13:00.883Z,11.05
2022-12-29T11:14:01.039Z,11.08
2022-12-29T11:15:01.161Z,11.12
2022-12-29T11:16:00.427Z,11.14
2022-12-29T11:17:00.571Z,11.13
2022-12-29T11:18:00.685Z,11.1
2022-12-29T11:19:00.766Z,11.08
2022-12-29T11:20:00.905Z,11.05
2022-12-29T11:21:01.060Z,11.05
2022-12-29T11:22:01.211Z,11.02
2022-12-29T11:23:00.375Z,11.01
2022-12-29T11:24:00.508Z,10.98
2022-12-29T11:25:00.649Z,11
2022-12-29T11:26:00.799Z,11.02
2022-12-29T11:27:00.962Z,11.01
2022-12-29T11:28:01.124Z,11.01
2022-12-29T11:29:01.245Z,11.03
2022-12-29T11:30:00.407Z,11.08
2022-12-29T11:31:00.540Z,11.1
2022-12-29T11:32:00.743Z,11.12
2022-12-29T11:33:00.844Z,11.13
2022-12-29T11:34:00.973Z,11.14
2022-12-29T11:35:01.124Z,11.17
2022-12-29T11:36:00.278Z,11.19
2022-12-29T11:37:00.443Z,11.22
2022-12-29T11:38:00.558Z,11.25
2022-12-29T11:39:00.705Z,11.26
2022-12-29T11:40:00.860Z,11.26
2022-12-29T11:41:01.005Z,11.27
2022-12-29T11:42:01.186Z,11.33
2022-12-29T11:43:00.333Z,11.39
2022-12-29T11:44:00.468Z,11.38
2022-12-29T11:45:00.609Z,11.38
2022-12-29T11:46:00.782Z,11.41
2022-12-29T11:47:00.919Z,11.44
2022-12-29T11:48:01.054Z,11.44
2022-12-29T11:49:01.199Z,11.42
2022-12-29T11:50:00.345Z,11.43
2022-12-29T11:51:00.531Z,11.44
2022-12-29T11:52:00.668Z,11.44
2022-12-29T11:53:00.785Z,11.44
2022-12-29T11:54:00.954Z,11.45
2022-12-29T11:55:01.089Z,11.45
2022-12-29T11:56:01.238Z,11.44
2022-12-29T11:57:00.392Z,11.46
2022-12-29T11:58:00.517Z,11.51
2022-12-29T11:59:00.667Z,11.54
2022-12-29T12:00:00.826Z,11.56
2022-12-29T12:01:00.965Z,11.6
2022-12-29T12:02:01.221Z,11.62
2022-12-29T12:03:01.299Z,11.63
2022-12-29T12:04:00.496Z,11.67
2022-12-29T12:05:00.557Z,11.68
2022-12-29T12:06:00.709Z,11.69
2022-12-29T12:07:00.855Z,11.7
2022-12-29T12:08:01.026Z,11.73
2022-12-29T12:09:01.161Z,11.74
2022-12-29T12:10:06.978Z,11.73
2022-12-29T12:11:00.463Z,11.73
2022-12-29T12:12:00.614Z,11.73
2022-12-29T12:13:00.759Z,11.7
2022-12-29T12:14:00.897Z,11.75
2022-12-29T12:15:01.050Z,11.82
2022-12-29T12:16:01.260Z,11.89
2022-12-29T12:17:00.398Z,11.97
2022-12-29T12:18:00.487Z,12.04
2022-12-29T12:19:00.635Z,12.12
2022-12-29T12:20:00.804Z,12.16
2022-12-29T12:21:00.932Z,12.2
2022-12-29T12:22:01.110Z,12.21
2022-12-29T12:23:01.282Z,12.2
2022-12-29T12:24:00.417Z,12.2
2022-12-29T12:25:00.554Z,12.17
2022-12-29T12:26:00.702Z,12.19
2022-12-29T12:27:00.860Z,12.19
2022-12-29T12:28:01.038Z,12.21
2022-12-29T12:29:01.184Z,12.25
2022-12-29T12:30:00.312Z,12.25
2022-12-29T12:31:00.504Z,12.25
2022-12-29T12:32:00.606Z,12.2
2022-12-29T12:33:00.766Z,12.18
2022-12-29T12:34:00.938Z,12.16
2022-12-29T12:35:01.058Z,12.13
2022-12-29T12:36:01.226Z,12.11
2022-12-29T12:37:00.350Z,12.08
2022-12-29T12:38:00.497Z,12.05
2022-12-29T12:39:00.662Z,12.05
2022-12-29T12:40:00.805Z,12.04
2022-12-29T12:41:00.934Z,12
2022-12-29T12:42:01.076Z,11.96
2022-12-29T12:43:01.238Z,11.99
2022-12-29T12:44:00.363Z,12.01
2022-12-29T12:45:00.527Z,11.99
2022-12-29T12:46:00.701Z,11.96
2022-12-29T12:47:00.818Z,11.92
2022-12-29T12:48:00.955Z,11.89
2022-12-29T12:49:01.106Z,11.86
2022-12-29T12:50:01.267Z,11.84
2022-12-29T12:51:00.402Z,11.83
2022-12-29T12:52:05.074Z,11.78
2022-12-29T12:53:00.687Z,11.77
2022-12-29T12:54:00.855Z,11.78
2022-12-29T12:55:01.026Z,11.78
2022-12-29T12:56:01.143Z,11.74
2022-12-29T12:57:00.284Z,11.75
2022-12-29T12:58:00.442Z,11.75
2022-12-29T12:59:07.197Z,11.72
2022-12-29T13:00:00.759Z,11.7
2022-12-29T13:01:00.891Z,11.7
2022-12-29T13:02:01.103Z,11.7
2022-12-29T13:03:01.447Z,11.7
2022-12-29T13:04:00.356Z,11.7
2022-12-29T13:05:00.496Z,11.69
2022-12-29T13:06:00.629Z,11.64
2022-12-29T13:07:00.773Z,11.6
2022-12-29T13:08:00.926Z,11.58
2022-12-29T13:09:01.083Z,11.57
2022-12-29T13:10:01.242Z,11.58
2022-12-29T13:11:00.370Z,11.62
2022-12-29T13:12:00.516Z,11.67
2022-12-29T13:13:00.745Z,11.69
2022-12-29T13:14:00.839Z,11.7